sensor_id;sensor_type;location;lat;lon;timestamp;pressure;altitude;pressure_sealevel;temperature;humidity
10482;BME280;5288;42.334;23.876;2023-09-19T00:00:56;56209.50;;;-140.56;86.72
10482;BME280;5288;42.334;23.876;2023-09-19T00:03:24;56217.41;;;-140.56;86.57
10482;BME280;5288;42.334;23.876;2023-09-19T00:05:53;56213.47;;;-140.56;85.83
10482;BME280;5288;42.334;23.876;2023-09-19T00:08:21;56241.13;;;-140.56;83.39
10482;BME280;5288;42.334;23.876;2023-09-19T00:10:50;56223.34;;;-140.56;84.62
10482;BME280;5288;42.334;23.876;2023-09-19T00:13:19;56229.28;;;-140.56;83.54
10482;BME280;5288;42.334;23.876;2023-09-19T00:15:47;56233.22;;;-140.56;85.42
10482;BME280;5288;42.334;23.876;2023-09-19T00:18:16;56219.41;;;-140.56;83.61
10482;BME280;5288;42.334;23.876;2023-09-19T00:20:44;56223.34;;;-140.56;85.14
10482;BME280;5288;42.334;23.876;2023-09-19T00:23:14;56231.25;;;-140.56;84.74
10482;BME280;5288;42.334;23.876;2023-09-19T00:25:42;56245.09;;;-140.56;84.26
10482;BME280;5288;42.334;23.876;2023-09-19T00:28:09;56215.44;;;-140.56;84.56
10482;BME280;5288;42.334;23.876;2023-09-19T00:30:36;56225.31;;;-140.56;83.29
10482;BME280;5288;42.334;23.876;2023-09-19T00:33:04;56225.31;;;-140.56;83.32
10482;BME280;5288;42.334;23.876;2023-09-19T00:35:33;56247.06;;;-140.56;82.65
10482;BME280;5288;42.334;23.876;2023-09-19T00:38:00;56249.03;;;-140.56;83.12
10482;BME280;5288;42.334;23.876;2023-09-19T00:40:29;56209.50;;;-140.56;85.90
10482;BME280;5288;42.334;23.876;2023-09-19T00:42:58;56233.22;;;-140.56;86.97
10482;BME280;5288;42.334;23.876;2023-09-19T00:45:26;56243.13;;;-140.56;86.47
10482;BME280;5288;42.334;23.876;2023-09-19T00:47:54;56237.19;;;-140.56;85.99
10482;BME280;5288;42.334;23.876;2023-09-19T00:50:24;56227.31;;;-140.56;85.23
10482;BME280;5288;42.334;23.876;2023-09-19T00:52:55;56223.34;;;-140.56;88.83
10482;BME280;5288;42.334;23.876;2023-09-19T00:55:23;56264.84;;;-140.56;90.36
10482;BME280;5288;42.334;23.876;2023-09-19T00:57:52;56258.94;;;-140.56;89.66
10482;BME280;5288;42.334;23.876;2023-09-19T01:00:22;56258.94;;;-140.56;88.11
10482;BME280;5288;42.334;23.876;2023-09-19T01:02:49;56235.22;;;-140.56;86.25
10482;BME280;5288;42.334;23.876;2023-09-19T01:05:16;56272.75;;;-140.56;84.79
10482;BME280;5288;42.334;23.876;2023-09-19T01:07:44;56235.22;;;-140.56;87.99
10482;BME280;5288;42.334;23.876;2023-09-19T01:10:13;56280.66;;;-140.56;88.59
10482;BME280;5288;42.334;23.876;2023-09-19T01:12:49;56260.91;;;-140.56;88.46
10482;BME280;5288;42.334;23.876;2023-09-19T01:15:32;56205.56;;;-140.56;87.69
10482;BME280;5288;42.334;23.876;2023-09-19T01:18:15;56221.38;;;-140.56;85.68
10482;BME280;5288;42.334;23.876;2023-09-19T01:20:53;56247.06;;;-140.56;86.32
10482;BME280;5288;42.334;23.876;2023-09-19T01:23:32;56249.03;;;-140.56;85.83
10482;BME280;5288;42.334;23.876;2023-09-19T01:26:11;56239.16;;;-140.56;84.73
10482;BME280;5288;42.334;23.876;2023-09-19T01:28:54;56239.16;;;-140.56;85.26
10482;BME280;5288;42.334;23.876;2023-09-19T01:31:33;56213.47;;;-140.56;87.18
10482;BME280;5288;42.334;23.876;2023-09-19T01:34:05;56243.13;;;-140.56;86.87
10482;BME280;5288;42.334;23.876;2023-09-19T01:36:35;56239.16;;;-140.56;87.26
10482;BME280;5288;42.334;23.876;2023-09-19T01:39:06;56235.22;;;-140.56;86.63
10482;BME280;5288;42.334;23.876;2023-09-19T01:41:47;56229.28;;;-140.56;87.06
10482;BME280;5288;42.334;23.876;2023-09-19T01:44:22;56219.41;;;-140.56;86.71
10482;BME280;5288;42.334;23.876;2023-09-19T01:46:55;56239.16;;;-140.56;85.14
10482;BME280;5288;42.334;23.876;2023-09-19T01:49:30;56239.16;;;-140.56;81.33
10482;BME280;5288;42.334;23.876;2023-09-19T01:52:05;56203.59;;;-140.56;82.27
10482;BME280;5288;42.334;23.876;2023-09-19T01:54:46;56243.13;;;-140.56;85.05
10482;BME280;5288;42.334;23.876;2023-09-19T01:57:20;56235.22;;;-140.56;84.23
10482;BME280;5288;42.334;23.876;2023-09-19T01:59:53;56223.34;;;-140.56;81.73
10482;BME280;5288;42.334;23.876;2023-09-19T02:02:24;56274.72;;;-140.56;82.06
10482;BME280;5288;42.334;23.876;2023-09-19T02:04:51;56278.69;;;-140.56;85.53
10482;BME280;5288;42.334;23.876;2023-09-19T02:07:19;56262.88;;;-140.56;89.41
10482;BME280;5288;42.334;23.876;2023-09-19T02:09:46;56245.09;;;-140.56;90.66
10482;BME280;5288;42.334;23.876;2023-09-19T02:12:13;56235.22;;;-140.56;88.75
10482;BME280;5288;42.334;23.876;2023-09-19T02:14:40;56231.25;;;-140.56;88.14
10482;BME280;5288;42.334;23.876;2023-09-19T02:17:07;56199.63;;;-140.56;86.73
10482;BME280;5288;42.334;23.876;2023-09-19T02:19:38;56231.25;;;-140.56;85.07
10482;BME280;5288;42.334;23.876;2023-09-19T02:22:07;56201.63;;;-140.56;84.56
10482;BME280;5288;42.334;23.876;2023-09-19T02:24:36;56239.16;;;-140.56;84.31
10482;BME280;5288;42.334;23.876;2023-09-19T02:27:04;56272.75;;;-140.56;83.98
10482;BME280;5288;42.334;23.876;2023-09-19T02:29:31;56221.38;;;-140.56;84.38
10482;BME280;5288;42.334;23.876;2023-09-19T02:31:59;56292.53;;;-140.56;86.76
10482;BME280;5288;42.334;23.876;2023-09-19T02:34:27;56310.31;;;-140.56;89.77
10482;BME280;5288;42.334;23.876;2023-09-19T02:36:55;56280.66;;;-140.56;91.78
10482;BME280;5288;42.334;23.876;2023-09-19T02:39:22;56272.75;;;-140.56;95.31
10482;BME280;5288;42.334;23.876;2023-09-19T02:41:50;56298.44;;;-140.56;95.36
10482;BME280;5288;42.334;23.876;2023-09-19T02:44:17;56270.78;;;-140.56;91.60
10482;BME280;5288;42.334;23.876;2023-09-19T02:46:45;56260.91;;;-140.56;89.00
10482;BME280;5288;42.334;23.876;2023-09-19T02:49:13;56247.06;;;-140.56;91.39
10482;BME280;5288;42.334;23.876;2023-09-19T02:51:40;56282.63;;;-140.56;90.15
10482;BME280;5288;42.334;23.876;2023-09-19T02:54:09;56268.81;;;-140.56;90.34
10482;BME280;5288;42.334;23.876;2023-09-19T02:56:37;56247.06;;;-140.56;91.48
10482;BME280;5288;42.334;23.876;2023-09-19T02:59:04;56278.69;;;-140.56;90.25
10482;BME280;5288;42.334;23.876;2023-09-19T03:01:31;56286.59;;;-140.56;87.47
10482;BME280;5288;42.334;23.876;2023-09-19T03:03:59;56253.00;;;-140.56;86.48
10482;BME280;5288;42.334;23.876;2023-09-19T03:06:26;56235.22;;;-140.56;86.73
10482;BME280;5288;42.334;23.876;2023-09-19T03:08:54;56231.25;;;-140.56;87.55
10482;BME280;5288;42.334;23.876;2023-09-19T03:11:23;56245.09;;;-140.56;89.22
10482;BME280;5288;42.334;23.876;2023-09-19T03:13:51;56239.16;;;-140.56;88.35
10482;BME280;5288;42.334;23.876;2023-09-19T03:16:18;56235.22;;;-140.56;87.88
10482;BME280;5288;42.334;23.876;2023-09-19T03:18:47;56227.31;;;-140.56;85.44
10482;BME280;5288;42.334;23.876;2023-09-19T03:21:14;56253.00;;;-140.56;85.93
10482;BME280;5288;42.334;23.876;2023-09-19T03:23:42;56231.25;;;-140.56;87.68
10482;BME280;5288;42.334;23.876;2023-09-19T03:26:11;56262.88;;;-140.56;88.01
10482;BME280;5288;42.334;23.876;2023-09-19T03:28:42;56274.72;;;-140.56;83.96
10482;BME280;5288;42.334;23.876;2023-09-19T03:31:11;56253.00;;;-140.56;83.13
10482;BME280;5288;42.334;23.876;2023-09-19T03:33:38;56276.72;;;-140.56;80.20
10482;BME280;5288;42.334;23.876;2023-09-19T03:36:05;56318.22;;;-140.56;81.14
10482;BME280;5288;42.334;23.876;2023-09-19T03:38:33;56272.75;;;-140.56;84.28
10482;BME280;5288;42.334;23.876;2023-09-19T03:41:00;56276.72;;;-140.56;84.25
10482;BME280;5288;42.334;23.876;2023-09-19T03:43:27;56274.72;;;-140.56;88.75
10482;BME280;5288;42.334;23.876;2023-09-19T03:45:56;56245.09;;;-140.56;86.17
10482;BME280;5288;42.334;23.876;2023-09-19T03:48:23;56276.72;;;-140.56;86.71
10482;BME280;5288;42.334;23.876;2023-09-19T03:50:50;56290.53;;;-140.56;89.39
10482;BME280;5288;42.334;23.876;2023-09-19T03:53:18;56298.44;;;-140.56;89.95
10482;BME280;5288;42.334;23.876;2023-09-19T03:55:45;56278.69;;;-140.56;90.83
10482;BME280;5288;42.334;23.876;2023-09-19T03:58:12;56292.53;;;-140.56;88.16
10482;BME280;5288;42.334;23.876;2023-09-19T04:00:40;56274.72;;;-140.56;86.42
10482;BME280;5288;42.334;23.876;2023-09-19T04:03:08;56262.88;;;-140.56;87.96
10482;BME280;5288;42.334;23.876;2023-09-19T04:05:44;56278.69;;;-140.56;87.47
10482;BME280;5288;42.334;23.876;2023-09-19T04:08:11;56270.78;;;-140.56;88.91
10482;BME280;5288;42.334;23.876;2023-09-19T04:10:41;56298.44;;;-140.56;90.65
10482;BME280;5288;42.334;23.876;2023-09-19T04:13:09;56282.63;;;-140.56;90.46
10482;BME280;5288;42.334;23.876;2023-09-19T04:15:36;56292.53;;;-140.56;89.40
10482;BME280;5288;42.334;23.876;2023-09-19T04:18:03;56278.69;;;-140.56;91.59
10482;BME280;5288;42.334;23.876;2023-09-19T04:20:32;56276.72;;;-140.56;93.10
10482;BME280;5288;42.334;23.876;2023-09-19T04:22:59;56278.69;;;-140.56;90.69
10482;BME280;5288;42.334;23.876;2023-09-19T04:25:26;56284.63;;;-140.56;88.60
10482;BME280;5288;42.334;23.876;2023-09-19T04:27:54;56296.47;;;-140.56;91.64
10482;BME280;5288;42.334;23.876;2023-09-19T04:30:21;56290.53;;;-140.56;93.18
10482;BME280;5288;42.334;23.876;2023-09-19T04:32:48;56254.97;;;-140.56;92.41
10482;BME280;5288;42.334;23.876;2023-09-19T04:35:16;56294.50;;;-140.56;91.79
10482;BME280;5288;42.334;23.876;2023-09-19T04:37:45;56235.22;;;-140.56;90.83
10482;BME280;5288;42.334;23.876;2023-09-19T04:40:13;56251.03;;;-140.56;88.81
10482;BME280;5288;42.334;23.876;2023-09-19T04:42:43;56254.97;;;-140.56;89.29
10482;BME280;5288;42.334;23.876;2023-09-19T04:45:12;56278.69;;;-140.56;87.87
10482;BME280;5288;42.334;23.876;2023-09-19T04:47:39;56229.28;;;-140.56;88.96
10482;BME280;5288;42.334;23.876;2023-09-19T04:50:09;56290.53;;;-140.56;88.92
10482;BME280;5288;42.334;23.876;2023-09-19T04:52:40;56245.09;;;-140.56;85.66
10482;BME280;5288;42.334;23.876;2023-09-19T04:55:12;56247.06;;;-140.56;86.05
10482;BME280;5288;42.334;23.876;2023-09-19T04:57:43;56264.84;;;-140.56;84.74
10482;BME280;5288;42.334;23.876;2023-09-19T05:00:12;56251.03;;;-140.56;85.96
10482;BME280;5288;42.334;23.876;2023-09-19T05:02:40;56251.03;;;-140.56;86.99
10482;BME280;5288;42.334;23.876;2023-09-19T05:05:08;56254.97;;;-140.56;86.74
10482;BME280;5288;42.334;23.876;2023-09-19T05:07:35;56235.22;;;-140.56;86.60
10482;BME280;5288;42.334;23.876;2023-09-19T05:10:03;56266.81;;;-140.56;86.62
10482;BME280;5288;42.334;23.876;2023-09-19T05:12:34;56262.88;;;-140.56;86.74
10482;BME280;5288;42.334;23.876;2023-09-19T05:15:01;56284.63;;;-140.56;86.08
10482;BME280;5288;42.334;23.876;2023-09-19T05:17:29;56258.94;;;-140.56;86.18
10482;BME280;5288;42.334;23.876;2023-09-19T05:19:57;56278.69;;;-140.56;86.58
10482;BME280;5288;42.334;23.876;2023-09-19T05:22:26;56243.13;;;-140.56;87.13
10482;BME280;5288;42.334;23.876;2023-09-19T05:24:54;56284.63;;;-140.56;87.42
10482;BME280;5288;42.334;23.876;2023-09-19T05:27:21;56231.25;;;-140.56;87.88
10482;BME280;5288;42.334;23.876;2023-09-19T05:29:50;56225.31;;;-140.56;88.24
10482;BME280;5288;42.334;23.876;2023-09-19T05:32:18;56247.06;;;-140.56;91.46
10482;BME280;5288;42.334;23.876;2023-09-19T05:34:46;56247.06;;;-140.56;92.62
10482;BME280;5288;42.334;23.876;2023-09-19T05:37:13;56254.97;;;-140.56;92.23
10482;BME280;5288;42.334;23.876;2023-09-19T05:39:41;56258.94;;;-140.56;90.44
10482;BME280;5288;42.334;23.876;2023-09-19T05:42:09;56254.97;;;-140.56;89.71
10482;BME280;5288;42.334;23.876;2023-09-19T05:44:36;56239.16;;;-140.56;90.74
10482;BME280;5288;42.334;23.876;2023-09-19T05:47:05;56264.84;;;-140.56;91.99
10482;BME280;5288;42.334;23.876;2023-09-19T05:49:34;56286.59;;;-140.56;94.02
10482;BME280;5288;42.334;23.876;2023-09-19T05:52:04;56247.06;;;-140.56;94.74
10482;BME280;5288;42.334;23.876;2023-09-19T05:54:31;56253.00;;;-140.56;96.66
10482;BME280;5288;42.334;23.876;2023-09-19T05:56:59;56253.00;;;-140.56;97.15
10482;BME280;5288;42.334;23.876;2023-09-19T05:59:27;56237.19;;;-140.56;98.76
10482;BME280;5288;42.334;23.876;2023-09-19T06:01:54;56253.00;;;-140.56;99.91
10482;BME280;5288;42.334;23.876;2023-09-19T06:04:22;56245.09;;;-140.56;99.79
10482;BME280;5288;42.334;23.876;2023-09-19T06:06:50;56235.22;;;-140.56;100.00
10482;BME280;5288;42.334;23.876;2023-09-19T06:09:18;56201.63;;;-140.56;99.37
10482;BME280;5288;42.334;23.876;2023-09-19T06:11:45;56211.50;;;-140.56;99.39
10482;BME280;5288;42.334;23.876;2023-09-19T06:14:12;56225.31;;;-140.56;97.70
10482;BME280;5288;42.334;23.876;2023-09-19T06:16:39;56231.25;;;-140.56;97.58
10482;BME280;5288;42.334;23.876;2023-09-19T06:19:07;56215.44;;;-140.56;96.06
10482;BME280;5288;42.334;23.876;2023-09-19T06:21:36;56239.16;;;-140.56;96.10
10482;BME280;5288;42.334;23.876;2023-09-19T06:24:03;56213.47;;;-140.56;94.01
10482;BME280;5288;42.334;23.876;2023-09-19T06:26:30;56211.50;;;-140.56;92.91
10482;BME280;5288;42.334;23.876;2023-09-19T06:28:57;56201.63;;;-140.56;93.38
10482;BME280;5288;42.334;23.876;2023-09-19T06:31:25;56207.53;;;-140.56;93.25
10482;BME280;5288;42.334;23.876;2023-09-19T06:33:52;56223.34;;;-140.56;92.35
10482;BME280;5288;42.334;23.876;2023-09-19T06:36:19;56213.47;;;-140.56;92.01
10482;BME280;5288;42.334;23.876;2023-09-19T06:38:49;56209.50;;;-140.56;92.35
10482;BME280;5288;42.334;23.876;2023-09-19T06:41:16;56193.72;;;-140.56;90.44
10482;BME280;5288;42.334;23.876;2023-09-19T06:43:44;56211.50;;;-140.56;90.56
10482;BME280;5288;42.334;23.876;2023-09-19T06:46:11;56168.00;;;-140.56;88.91
10482;BME280;5288;42.334;23.876;2023-09-19T06:48:39;56175.91;;;-140.56;86.78
10482;BME280;5288;42.334;23.876;2023-09-19T06:51:07;56219.41;;;-140.56;86.21
10482;BME280;5288;42.334;23.876;2023-09-19T06:53:35;56168.00;;;-140.56;86.38
10482;BME280;5288;42.334;23.876;2023-09-19T06:56:04;56195.69;;;-140.56;86.58
10482;BME280;5288;42.334;23.876;2023-09-19T06:58:32;56191.72;;;-140.56;86.82
10482;BME280;5288;42.334;23.876;2023-09-19T07:00:59;56187.78;;;-140.56;84.50
10482;BME280;5288;42.334;23.876;2023-09-19T07:03:26;56179.88;;;-140.56;85.63
10482;BME280;5288;42.334;23.876;2023-09-19T07:05:54;56166.03;;;-140.56;84.62
10482;BME280;5288;42.334;23.876;2023-09-19T07:08:21;56160.13;;;-140.56;82.85
10482;BME280;5288;42.334;23.876;2023-09-19T07:10:48;56128.50;;;-140.56;82.34
10482;BME280;5288;42.334;23.876;2023-09-19T07:13:19;56171.97;;;-140.56;81.13
10482;BME280;5288;42.334;23.876;2023-09-19T07:15:46;56152.22;;;-140.56;79.98
10482;BME280;5288;42.334;23.876;2023-09-19T07:18:16;56156.16;;;-140.56;79.73
10482;BME280;5288;42.334;23.876;2023-09-19T07:20:43;56144.31;;;-140.56;78.71
10482;BME280;5288;42.334;23.876;2023-09-19T07:23:14;56120.59;;;-140.56;78.59
10482;BME280;5288;42.334;23.876;2023-09-19T07:25:44;56132.44;;;-140.56;77.02
10482;BME280;5288;42.334;23.876;2023-09-19T07:28:11;56130.47;;;-140.56;75.43
10482;BME280;5288;42.334;23.876;2023-09-19T07:30:40;56122.56;;;-140.56;73.97
10482;BME280;5288;42.334;23.876;2023-09-19T07:33:08;56104.78;;;-140.56;74.02
10482;BME280;5288;42.334;23.876;2023-09-19T07:35:37;56092.91;;;-140.56;72.10
10482;BME280;5288;42.334;23.876;2023-09-19T07:38:05;56120.59;;;-140.56;71.93
10482;BME280;5288;42.334;23.876;2023-09-19T07:40:33;56092.91;;;-140.56;72.34
10482;BME280;5288;42.334;23.876;2023-09-19T07:43:00;56120.59;;;-140.56;70.71
10482;BME280;5288;42.334;23.876;2023-09-19T07:45:29;56088.97;;;-140.56;71.90
10482;BME280;5288;42.334;23.876;2023-09-19T07:47:58;56112.69;;;-140.56;71.78
10482;BME280;5288;42.334;23.876;2023-09-19T07:50:30;56120.59;;;-140.56;71.75
10482;BME280;5288;42.334;23.876;2023-09-19T07:52:57;56081.06;;;-140.56;71.60
10482;BME280;5288;42.334;23.876;2023-09-19T07:55:24;56085.00;;;-140.56;70.61
10482;BME280;5288;42.334;23.876;2023-09-19T07:57:52;56136.41;;;-140.56;71.21
10482;BME280;5288;42.334;23.876;2023-09-19T08:00:19;56116.63;;;-140.56;70.14
10482;BME280;5288;42.334;23.876;2023-09-19T08:02:46;56071.19;;;-140.56;70.27
10482;BME280;5288;42.334;23.876;2023-09-19T08:05:15;56108.72;;;-140.56;70.30
10482;BME280;5288;42.334;23.876;2023-09-19T08:07:45;56118.59;;;-140.56;69.99
10482;BME280;5288;42.334;23.876;2023-09-19T08:10:14;56098.84;;;-140.56;70.11
10482;BME280;5288;42.334;23.876;2023-09-19T08:12:42;56122.56;;;-140.56;70.12
10482;BME280;5288;42.334;23.876;2023-09-19T08:15:12;56088.97;;;-140.56;71.21
10482;BME280;5288;42.334;23.876;2023-09-19T08:17:40;56075.13;;;-140.56;66.79
10482;BME280;5288;42.334;23.876;2023-09-19T08:20:08;56055.38;;;-140.56;66.50
10482;BME280;5288;42.334;23.876;2023-09-19T08:22:46;56075.13;;;-140.56;67.43
10482;BME280;5288;42.334;23.876;2023-09-19T08:25:14;56075.13;;;-140.56;64.89
10482;BME280;5288;42.334;23.876;2023-09-19T08:27:43;56037.59;;;-140.56;65.88
10482;BME280;5288;42.334;23.876;2023-09-19T08:30:14;56043.50;;;-140.56;63.67
10482;BME280;5288;42.334;23.876;2023-09-19T08:32:42;56023.75;;;-140.56;62.40
10482;BME280;5288;42.334;23.876;2023-09-19T08:35:09;56029.69;;;-140.56;61.73
10482;BME280;5288;42.334;23.876;2023-09-19T08:37:36;56057.34;;;-140.56;61.69
10482;BME280;5288;42.334;23.876;2023-09-19T08:40:06;56031.66;;;-140.56;61.87
10482;BME280;5288;42.334;23.876;2023-09-19T08:42:47;56041.53;;;-140.56;60.43
10482;BME280;5288;42.334;23.876;2023-09-19T08:45:15;56011.91;;;-140.56;60.07
10482;BME280;5288;42.334;23.876;2023-09-19T08:47:46;56055.38;;;-140.56;59.44
10482;BME280;5288;42.334;23.876;2023-09-19T08:50:19;56027.72;;;-140.56;60.36
10482;BME280;5288;42.334;23.876;2023-09-19T08:52:47;56004.00;;;-140.56;59.17
10482;BME280;5288;42.334;23.876;2023-09-19T08:55:23;56009.91;;;-140.56;57.19
10482;BME280;5288;42.334;23.876;2023-09-19T08:57:59;56039.56;;;-140.56;59.04
10482;BME280;5288;42.334;23.876;2023-09-19T09:00:28;56049.44;;;-140.56;59.79
10482;BME280;5288;42.334;23.876;2023-09-19T09:02:56;56011.91;;;-140.56;58.10
10482;BME280;5288;42.334;23.876;2023-09-19T09:05:24;56041.53;;;-140.56;56.69
10482;BME280;5288;42.334;23.876;2023-09-19T09:07:52;56000.03;;;-140.56;56.89
10482;BME280;5288;42.334;23.876;2023-09-19T09:10:23;56019.81;;;-140.56;55.37
10482;BME280;5288;42.334;23.876;2023-09-19T09:12:52;56005.97;;;-140.56;57.28
10482;BME280;5288;42.334;23.876;2023-09-19T09:15:21;56004.00;;;-140.56;57.06
10482;BME280;5288;42.334;23.876;2023-09-19T09:17:49;56013.88;;;-140.56;56.25
10482;BME280;5288;42.334;23.876;2023-09-19T09:20:18;56013.88;;;-140.56;55.71
10482;BME280;5288;42.334;23.876;2023-09-19T09:22:51;56002.00;;;-140.56;55.50
10482;BME280;5288;42.334;23.876;2023-09-19T09:25:19;56002.00;;;-140.56;56.02
10482;BME280;5288;42.334;23.876;2023-09-19T09:28:00;55994.13;;;-140.56;56.69
10482;BME280;5288;42.334;23.876;2023-09-19T09:30:34;56000.03;;;-140.56;54.38
10482;BME280;5288;42.334;23.876;2023-09-19T09:33:09;55994.13;;;-140.56;54.71
10482;BME280;5288;42.334;23.876;2023-09-19T09:35:37;56004.00;;;-140.56;53.63
10482;BME280;5288;42.334;23.876;2023-09-19T09:38:07;55996.09;;;-140.56;53.10
10482;BME280;5288;42.334;23.876;2023-09-19T09:40:50;56013.88;;;-140.56;52.53
10482;BME280;5288;42.334;23.876;2023-09-19T09:43:30;55976.31;;;-140.56;52.93
10482;BME280;5288;42.334;23.876;2023-09-19T09:46:08;56029.69;;;-140.56;59.98
10482;BME280;5288;42.334;23.876;2023-09-19T09:48:59;56009.91;;;-140.56;54.71
10482;BME280;5288;42.334;23.876;2023-09-19T09:51:42;56007.94;;;-140.56;54.97
10482;BME280;5288;42.334;23.876;2023-09-19T09:54:13;56037.59;;;-140.56;55.17
10482;BME280;5288;42.334;23.876;2023-09-19T09:56:57;56015.84;;;-140.56;54.50
10482;BME280;5288;42.334;23.876;2023-09-19T09:59:56;56025.72;;;-140.56;52.34
10482;BME280;5288;42.334;23.876;2023-09-19T10:02:26;56002.00;;;-140.56;54.54
10482;BME280;5288;42.334;23.876;2023-09-19T10:04:58;55988.19;;;-140.56;52.36
10482;BME280;5288;42.334;23.876;2023-09-19T10:07:35;55986.22;;;-140.56;52.03
10482;BME280;5288;42.334;23.876;2023-09-19T10:10:05;55996.09;;;-140.56;52.37
10482;BME280;5288;42.334;23.876;2023-09-19T10:12:44;55990.16;;;-140.56;51.75
10482;BME280;5288;42.334;23.876;2023-09-19T10:15:18;55974.34;;;-140.56;50.73
10482;BME280;5288;42.334;23.876;2023-09-19T10:17:46;55996.09;;;-140.56;51.89
10482;BME280;5288;42.334;23.876;2023-09-19T10:20:15;55956.56;;;-140.56;49.03
10482;BME280;5288;42.334;23.876;2023-09-19T10:23:04;55968.41;;;-140.56;48.29
10482;BME280;5288;42.334;23.876;2023-09-19T10:25:37;55958.53;;;-140.56;48.28
10482;BME280;5288;42.334;23.876;2023-09-19T10:28:06;55960.53;;;-140.56;47.51
10482;BME280;5288;42.334;23.876;2023-09-19T10:30:41;55962.50;;;-140.56;47.62
10482;BME280;5288;42.334;23.876;2023-09-19T10:33:11;55986.22;;;-140.56;48.14
10482;BME280;5288;42.334;23.876;2023-09-19T10:35:39;55946.69;;;-140.56;49.93
10482;BME280;5288;42.334;23.876;2023-09-19T10:38:10;55926.94;;;-140.56;47.50
10482;BME280;5288;42.334;23.876;2023-09-19T10:40:38;55966.44;;;-140.56;49.07
10482;BME280;5288;42.334;23.876;2023-09-19T10:43:12;55942.72;;;-140.56;46.54
10482;BME280;5288;42.334;23.876;2023-09-19T10:45:44;55954.59;;;-140.56;46.31
10482;BME280;5288;42.334;23.876;2023-09-19T10:48:12;55921.00;;;-140.56;46.99
10482;BME280;5288;42.334;23.876;2023-09-19T10:50:44;55913.09;;;-140.56;46.16
10482;BME280;5288;42.334;23.876;2023-09-19T10:53:13;55922.97;;;-140.56;45.62
10482;BME280;5288;42.334;23.876;2023-09-19T10:55:48;55911.13;;;-140.56;45.29
10482;BME280;5288;42.334;23.876;2023-09-19T10:58:28;55948.66;;;-140.56;45.33
10482;BME280;5288;42.334;23.876;2023-09-19T11:00:57;55932.84;;;-140.56;45.25
10482;BME280;5288;42.334;23.876;2023-09-19T11:03:31;55915.06;;;-140.56;46.34
10482;BME280;5288;42.334;23.876;2023-09-19T11:06:10;55903.22;;;-140.56;46.35
10482;BME280;5288;42.334;23.876;2023-09-19T11:08:57;55885.44;;;-140.56;45.54
10482;BME280;5288;42.334;23.876;2023-09-19T11:11:41;55913.09;;;-140.56;43.78
10482;BME280;5288;42.334;23.876;2023-09-19T11:17:42;55911.13;;;-140.56;43.51
10482;BME280;5288;42.334;23.876;2023-09-19T11:20:24;55871.59;;;-140.56;45.52
10482;BME280;5288;42.334;23.876;2023-09-19T11:23:20;55855.78;;;-140.56;43.14
10482;BME280;5288;42.334;23.876;2023-09-19T11:25:55;55883.44;;;-140.56;42.16
10482;BME280;5288;42.334;23.876;2023-09-19T11:28:34;55865.66;;;-140.56;41.99
10482;BME280;5288;42.334;23.876;2023-09-19T11:34:55;55869.63;;;-140.56;42.24
10482;BME280;5288;42.334;23.876;2023-09-19T11:38:00;55913.09;;;-140.56;44.21
10482;BME280;5288;42.334;23.876;2023-09-19T11:40:28;55891.34;;;-140.56;42.23
10482;BME280;5288;42.334;23.876;2023-09-19T11:42:56;55877.53;;;-140.56;40.88
10482;BME280;5288;42.334;23.876;2023-09-19T11:48:31;55879.50;;;-140.56;41.11
10482;BME280;5288;42.334;23.876;2023-09-19T11:51:00;55851.84;;;-140.56;40.91
10482;BME280;5288;42.334;23.876;2023-09-19T11:53:33;55867.63;;;-140.56;41.04
10482;BME280;5288;42.334;23.876;2023-09-19T11:56:04;55847.88;;;-140.56;41.14
10482;BME280;5288;42.334;23.876;2023-09-19T11:58:37;55836.03;;;-140.56;39.98
10482;BME280;5288;42.334;23.876;2023-09-19T12:01:05;55808.34;;;-140.56;40.08
10482;BME280;5288;42.334;23.876;2023-09-19T12:03:42;55818.25;;;-140.56;38.92
10482;BME280;5288;42.334;23.876;2023-09-19T12:06:15;55845.91;;;-140.56;39.02
10482;BME280;5288;42.334;23.876;2023-09-19T12:08:43;55820.22;;;-140.56;39.78
10482;BME280;5288;42.334;23.876;2023-09-19T12:11:13;55820.22;;;-140.56;39.18
10482;BME280;5288;42.334;23.876;2023-09-19T12:13:42;55853.81;;;-140.56;40.21
10482;BME280;5288;42.334;23.876;2023-09-19T12:16:13;55867.63;;;-140.56;40.38
10482;BME280;5288;42.334;23.876;2023-09-19T12:18:42;55849.84;;;-140.56;40.11
10482;BME280;5288;42.334;23.876;2023-09-19T12:21:26;55845.91;;;-140.56;40.94
10482;BME280;5288;42.334;23.876;2023-09-19T12:23:59;55806.38;;;-140.56;39.10
10482;BME280;5288;42.334;23.876;2023-09-19T12:26:27;55826.16;;;-140.56;38.59
10482;BME280;5288;42.334;23.876;2023-09-19T12:28:55;55832.06;;;-140.56;39.11
10482;BME280;5288;42.334;23.876;2023-09-19T12:31:23;55814.28;;;-140.56;39.78
10482;BME280;5288;42.334;23.876;2023-09-19T12:33:55;55768.84;;;-140.56;38.82
10482;BME280;5288;42.334;23.876;2023-09-19T12:36:22;55762.91;;;-140.56;38.38
10482;BME280;5288;42.334;23.876;2023-09-19T12:38:56;55731.28;;;-140.56;38.38
10482;BME280;5288;42.334;23.876;2023-09-19T12:41:25;55798.47;;;-140.56;37.83
10482;BME280;5288;42.334;23.876;2023-09-19T12:43:52;55806.38;;;-140.56;38.64
10482;BME280;5288;42.334;23.876;2023-09-19T12:46:20;55828.13;;;-140.56;38.14
10482;BME280;5288;42.334;23.876;2023-09-19T12:49:15;55839.97;;;-140.56;39.22
10482;BME280;5288;42.334;23.876;2023-09-19T12:51:43;55826.16;;;-140.56;39.02
10482;BME280;5288;42.334;23.876;2023-09-19T12:54:12;55838.00;;;-140.56;39.66
10482;BME280;5288;42.334;23.876;2023-09-19T12:56:41;55853.81;;;-140.56;40.11
10482;BME280;5288;42.334;23.876;2023-09-19T12:59:11;55847.88;;;-140.56;40.63
10482;BME280;5288;42.334;23.876;2023-09-19T13:01:39;55891.34;;;-140.56;40.27
10482;BME280;5288;42.334;23.876;2023-09-19T13:04:11;55814.28;;;-140.56;39.25
10482;BME280;5288;42.334;23.876;2023-09-19T13:06:40;55796.50;;;-140.56;39.26